Time;durP1;ratioP1;P1;durP2;ratioP2;P2;SDS_P1;SDS_P2;PMS_P1;PMS_P2;Temp;Humidity;BMP_temperature;BMP_pressure;BME280_temperature;BME280_humidity;BME280_pressure;Samples;Min_cycle;Max_cycle;Signal;HPM_P1;HPM_P2
2021/11/11 00:00:08;;;;;;;16.90;11.17;;;3.20;83.90;;;;;;4892927;29;20473;-44
2021/11/11 00:02:35;;;;;;;18.10;11.87;;;3.20;84.00;;;;;;4893582;29;20499;-44
2021/11/11 00:05:03;;;;;;;16.30;11.80;;;3.20;84.00;;;;;;4887604;29;20470;-42
2021/11/11 00:07:32;;;;;;;12.57;10.17;;;3.20;84.00;;;;;;4867797;29;20478;-42
2021/11/11 00:10:00;;;;;;;17.87;11.80;;;3.20;84.00;;;;;;4886356;29;20472;-43
2021/11/11 00:12:31;;;;;;;17.50;10.67;;;3.10;84.00;;;;;;4875975;29;20476;-44
2021/11/11 00:15:05;;;;;;;19.43;13.27;;;3.10;84.10;;;;;;4889596;29;20545;-43
2021/11/11 00:17:32;;;;;;;16.77;12.20;;;3.20;83.90;;;;;;4881503;29;20476;-43
2021/11/11 00:19:59;;;;;;;11.40;9.83;;;3.20;83.80;;;;;;4874857;29;20477;-45
2021/11/11 00:22:26;;;;;;;16.77;11.30;;;3.10;83.80;;;;;;4877727;29;21025;-43
2021/11/11 00:24:53;;;;;;;16.00;11.17;;;3.20;83.60;;;;;;4875738;29;20476;-44
2021/11/11 00:27:20;;;;;;;13.33;11.23;;;3.10;83.50;;;;;;4893264;29;20557;-44
2021/11/11 00:29:47;;;;;;;14.20;10.93;;;3.10;83.60;;;;;;4879222;29;20473;-44
2021/11/11 00:32:14;;;;;;;13.67;10.63;;;3.10;83.70;;;;;;4874275;29;20866;-44
2021/11/11 00:34:43;;;;;;;14.50;9.60;;;3.10;83.90;;;;;;4887984;29;20842;-44
2021/11/11 00:37:10;;;;;;;17.13;11.10;;;3.10;83.90;;;;;;4890143;29;20472;-44
2021/11/11 00:39:36;;;;;;;14.47;10.70;;;3.10;83.90;;;;;;4892283;29;20477;-44
2021/11/11 00:42:04;;;;;;;14.27;10.80;;;3.10;83.80;;;;;;4879348;29;20505;-44
2021/11/11 00:44:31;;;;;;;16.40;10.80;;;3.10;83.80;;;;;;4893345;29;20963;-45
2021/11/11 00:46:58;;;;;;;15.30;10.37;;;3.10;84.00;;;;;;4894292;29;20588;-44
2021/11/11 00:49:25;;;;;;;16.03;11.13;;;3.10;84.00;;;;;;4895235;29;20463;-44
2021/11/11 00:51:51;;;;;;;12.13;9.30;;;3.10;84.00;;;;;;4895448;29;20458;-44
2021/11/11 00:54:18;;;;;;;16.47;10.53;;;3.10;84.00;;;;;;4864733;29;20457;-44
2021/11/11 00:56:45;;;;;;;16.23;10.93;;;3.00;84.10;;;;;;4877271;29;20477;-44
2021/11/11 00:59:12;;;;;;;13.30;10.13;;;3.00;84.10;;;;;;4892904;29;20476;-44
2021/11/11 01:01:39;;;;;;;14.27;10.93;;;3.00;84.10;;;;;;4893026;29;20466;-44
2021/11/11 01:04:06;;;;;;;14.80;11.00;;;3.10;84.00;;;;;;4896692;29;20533;-44
2021/11/11 01:06:33;;;;;;;16.40;11.77;;;3.00;83.90;;;;;;4898577;29;20480;-45
2021/11/11 01:09:00;;;;;;;19.90;11.80;;;3.00;84.00;;;;;;4896803;29;20466;-45
2021/11/11 01:11:27;;;;;;;16.67;11.77;;;3.00;84.10;;;;;;4891341;29;20454;-45
2021/11/11 01:14:15;;;;;;;21.10;11.80;;;3.00;84.20;;;;;;4895304;29;20462;-45
2021/11/11 01:16:42;;;;;;;14.50;10.53;;;3.00;84.20;;;;;;4895415;29;20465;-45
2021/11/11 01:19:09;;;;;;;14.40;11.97;;;3.00;84.10;;;;;;4894032;29;20457;-44
2021/11/11 01:21:36;;;;;;;13.80;10.20;;;3.00;84.00;;;;;;4893461;29;28787;-44
2021/11/11 01:24:03;;;;;;;12.87;10.50;;;3.00;84.10;;;;;;4894972;29;20511;-44
2021/11/11 01:26:29;;;;;;;14.33;11.07;;;3.00;83.90;;;;;;4879477;29;20508;-44
2021/11/11 01:28:56;;;;;;;22.53;10.63;;;3.00;84.00;;;;;;4894574;29;20500;-44
2021/11/11 01:31:23;;;;;;;19.40;11.30;;;3.00;83.80;;;;;;4895349;29;21343;-44
2021/11/11 01:33:50;;;;;;;16.30;11.60;;;3.00;83.90;;;;;;4894215;29;20627;-45
2021/11/11 01:36:17;;;;;;;17.93;11.17;;;2.90;84.00;;;;;;4894071;29;20457;-42
2021/11/11 01:38:43;;;;;;;13.57;10.10;;;2.90;84.10;;;;;;4884732;29;20470;-43
2021/11/11 01:41:10;;;;;;;19.97;13.43;;;2.90;84.00;;;;;;4881436;29;20453;-42
2021/11/11 01:43:37;;;;;;;14.70;11.60;;;2.90;83.90;;;;;;4884136;29;20801;-42
2021/11/11 01:46:04;;;;;;;18.27;12.73;;;2.90;84.00;;;;;;4871636;29;20473;-42
2021/11/11 01:48:30;;;;;;;18.47;11.10;;;2.90;84.00;;;;;;4889807;29;20477;-44
2021/11/11 01:50:58;;;;;;;17.10;10.77;;;2.90;83.90;;;;;;4873902;29;20666;-44
2021/11/11 01:53:24;;;;;;;12.60;10.23;;;2.80;83.90;;;;;;4895726;29;21019;-44
2021/11/11 01:55:52;;;;;;;16.03;9.77;;;2.80;83.90;;;;;;4892702;29;21038;-44
2021/11/11 01:58:19;;;;;;;14.37;10.40;;;2.80;84.00;;;;;;4901239;29;20464;-44
2021/11/11 02:00:51;;;;;;;18.80;11.63;;;2.80;84.00;;;;;;4899017;29;20476;-45
2021/11/11 02:03:18;;;;;;;16.97;10.50;;;2.80;83.80;;;;;;4877179;29;21172;-44
2021/11/11 02:05:45;;;;;;;20.47;13.93;;;2.70;83.80;;;;;;4882328;29;20465;-44
2021/11/11 02:08:13;;;;;;;37.37;22.53;;;2.70;84.00;;;;;;4897104;29;20477;-44
2021/11/11 02:10:42;;;;;;;25.23;16.97;;;2.70;83.90;;;;;;4880579;29;20766;-44
2021/11/11 02:13:09;;;;;;;17.07;12.93;;;2.70;83.90;;;;;;4879128;29;20473;-45
2021/11/11 02:15:37;;;;;;;16.23;11.00;;;2.70;83.80;;;;;;4883514;29;20764;-42
2021/11/11 02:18:06;;;;;;;12.33;11.13;;;2.70;83.70;;;;;;4886040;29;20534;-42
2021/11/11 02:20:36;;;;;;;12.90;10.47;;;2.70;83.60;;;;;;4887112;29;20664;-42
2021/11/11 02:23:05;;;;;;;14.20;9.40;;;2.70;83.70;;;;;;4883083;29;20500;-42
2021/11/11 02:25:32;;;;;;;15.10;10.67;;;2.60;83.70;;;;;;4884202;29;20466;-42
2021/11/11 02:28:04;;;;;;;13.90;11.20;;;2.60;83.70;;;;;;4886187;29;20453;-42
2021/11/11 02:30:32;;;;;;;11.40;9.30;;;2.60;83.70;;;;;;4888284;29;20469;-42
2021/11/11 02:32:59;;;;;;;12.40;9.20;;;2.60;83.80;;;;;;4886468;29;20486;-43
2021/11/11 02:35:27;;;;;;;12.73;10.03;;;2.60;83.70;;;;;;4883874;29;20476;-43
2021/11/11 02:37:53;;;;;;;12.93;9.40;;;2.60;83.80;;;;;;4898213;29;20462;-44
2021/11/11 02:40:25;;;;;;;15.00;11.60;;;2.60;83.80;;;;;;4880352;29;20457;-44
2021/11/11 02:42:52;;;;;;;15.30;9.93;;;2.60;83.90;;;;;;4894984;29;20501;-44
2021/11/11 02:45:26;;;;;;;15.63;9.53;;;2.60;84.00;;;;;;4885864;29;20461;-44
2021/11/11 02:47:53;;;;;;;15.33;11.03;;;2.50;84.00;;;;;;4899637;29;20464;-44
2021/11/11 02:50:21;;;;;;;16.40;11.03;;;2.50;84.10;;;;;;4894336;29;20589;-44
2021/11/11 02:52:50;;;;;;;11.40;9.70;;;2.60;84.00;;;;;;4892814;29;20473;-44
2021/11/11 02:55:17;;;;;;;13.40;10.57;;;2.60;84.10;;;;;;4896254;29;20513;-44
2021/11/11 02:57:46;;;;;;;13.20;10.37;;;2.60;84.10;;;;;;4895614;29;20471;-44
2021/11/11 03:00:20;;;;;;;18.27;10.40;;;2.60;84.10;;;;;;4897269;29;20466;-44
2021/11/11 03:02:49;;;;;;;13.00;11.03;;;2.60;84.10;;;;;;4893496;29;20502;-44
2021/11/11 03:05:20;;;;;;;12.60;9.83;;;2.60;84.00;;;;;;4896642;29;20496;-44
2021/11/11 03:07:47;;;;;;;14.30;11.00;;;2.60;84.10;;;;;;4882714;29;20569;-44
2021/11/11 03:10:24;;;;;;;17.40;11.70;;;2.60;84.10;;;;;;4895506;29;20475;-43
2021/11/11 03:12:52;;;;;;;15.03;9.63;;;2.60;84.10;;;;;;4897557;29;20480;-44
2021/11/11 03:15:20;;;;;;;11.43;8.97;;;2.60;84.20;;;;;;4881343;29;20469;-43
2021/11/11 03:17:47;;;;;;;12.07;9.47;;;2.50;84.20;;;;;;4896704;29;20473;-44
2021/11/11 03:20:15;;;;;;;13.87;10.63;;;2.60;84.40;;;;;;4891973;29;20472;-44
2021/11/11 03:22:43;;;;;;;18.47;11.10;;;2.50;84.40;;;;;;4896359;29;20500;-44
2021/11/11 03:25:12;;;;;;;17.80;10.07;;;2.60;84.40;;;;;;4878075;29;20458;-44
2021/11/11 03:27:39;;;;;;;17.53;11.90;;;2.50;84.50;;;;;;4875827;29;20465;-42
2021/11/11 03:30:12;;;;;;;15.43;10.47;;;2.60;84.50;;;;;;4887704;29;20560;-44
2021/11/11 03:32:40;;;;;;;17.10;11.43;;;2.50;84.50;;;;;;4896550;29;21082;-44
2021/11/11 03:35:08;;;;;;;16.57;11.17;;;2.50;84.60;;;;;;4896641;29;20493;-44
2021/11/11 03:37:36;;;;;;;19.57;11.93;;;2.60;84.60;;;;;;4876747;29;20476;-44
2021/11/11 03:40:06;;;;;;;14.43;10.43;;;2.70;84.60;;;;;;4883519;29;21660;-42
2021/11/11 03:42:33;;;;;;;13.40;9.83;;;2.70;84.30;;;;;;4884832;29;20481;-42
2021/11/11 03:45:00;;;;;;;12.30;10.03;;;2.70;84.40;;;;;;4883648;29;20591;-42
2021/11/11 03:47:26;;;;;;;13.83;10.47;;;2.70;84.40;;;;;;4867924;29;20466;-42
2021/11/11 03:49:53;;;;;;;13.10;10.07;;;2.60;84.40;;;;;;4882627;29;20504;-43
2021/11/11 03:52:20;;;;;;;11.37;9.60;;;2.60;84.60;;;;;;4882734;29;20470;-43
2021/11/11 03:54:48;;;;;;;12.80;9.40;;;2.60;84.80;;;;;;4886393;29;20461;-41
2021/11/11 03:57:15;;;;;;;12.57;9.57;;;2.60;84.60;;;;;;4865619;29;20863;-42
2021/11/11 03:59:41;;;;;;;13.20;9.63;;;2.60;84.70;;;;;;4880606;29;20469;-43
2021/11/11 04:02:13;;;;;;;14.40;9.63;;;2.60;84.50;;;;;;4886511;29;20480;-42
2021/11/11 04:04:41;;;;;;;10.37;8.40;;;2.60;84.40;;;;;;4886209;29;20519;-42
2021/11/11 04:07:09;;;;;;;11.83;9.20;;;2.60;84.60;;;;;;4854979;29;20474;-42
2021/11/11 04:09:35;;;;;;;11.93;9.20;;;2.50;84.70;;;;;;4884735;29;20476;-41
2021/11/11 04:12:04;;;;;;;15.43;9.40;;;2.50;84.90;;;;;;4883894;29;20465;-42
2021/11/11 04:14:32;;;;;;;10.47;7.90;;;2.50;85.00;;;;;;4868928;29;20480;-42
2021/11/11 04:16:59;;;;;;;11.77;8.80;;;2.60;84.80;;;;;;4868627;29;20472;-42
2021/11/11 04:19:26;;;;;;;9.20;7.70;;;2.50;84.80;;;;;;4884946;29;20470;-42
2021/11/11 04:21:53;;;;;;;12.30;9.53;;;2.50;85.20;;;;;;4885329;29;20488;-42
2021/11/11 04:24:20;;;;;;;12.33;8.43;;;2.50;85.20;;;;;;4883940;29;20497;-42
2021/11/11 04:26:53;;;;;;;13.50;8.77;;;2.60;85.20;;;;;;4887075;29;21028;-43
2021/11/11 04:29:24;;;;;;;12.93;10.37;;;2.50;85.20;;;;;;4885561;29;20957;-43
2021/11/11 04:32:07;;;;;;;13.77;9.53;;;2.60;85.30;;;;;;4891889;29;20489;-44
2021/11/11 04:34:34;;;;;;;10.20;8.57;;;2.60;85.10;;;;;;4895472;29;20473;-44
2021/11/11 04:40:42;;;;;;;11.63;8.83;;;2.60;85.00;;;;;;4885276;29;20981;-42
2021/11/11 04:48:12;;;;;;;13.83;9.27;;;2.40;85.30;;;;;;4895394;29;20569;-44
2021/11/11 05:04:07;;;;;;;14.30;10.27;;;2.30;85.70;;;;;;4897641;29;20912;-44
2021/11/11 05:06:34;;;;;;;12.63;9.00;;;2.20;85.80;;;;;;4893725;29;20496;-44
2021/11/11 05:09:01;;;;;;;12.10;9.33;;;2.30;85.90;;;;;;4896368;29;20537;-44
2021/11/11 05:11:28;;;;;;;14.33;10.00;;;2.30;85.70;;;;;;4881895;29;20979;-44
2021/11/11 05:13:55;;;;;;;12.93;9.83;;;2.30;85.80;;;;;;4897582;29;20920;-44
2021/11/11 05:16:21;;;;;;;9.93;8.90;;;2.20;85.70;;;;;;4880184;29;20484;-44
2021/11/11 05:18:48;;;;;;;12.17;9.40;;;2.20;85.70;;;;;;4895059;29;20474;-44
2021/11/11 05:21:15;;;;;;;19.93;13.17;;;2.20;85.80;;;;;;4881983;29;20466;-44
2021/11/11 05:23:42;;;;;;;15.27;9.70;;;2.20;85.70;;;;;;4897791;29;20507;-44
2021/11/11 05:26:09;;;;;;;12.70;9.20;;;2.20;85.60;;;;;;4892895;29;20465;-43
2021/11/11 05:28:36;;;;;;;17.87;10.50;;;2.20;85.60;;;;;;4894449;29;20467;-44
2021/11/11 05:31:03;;;;;;;11.33;9.07;;;2.20;85.60;;;;;;4898091;29;20488;-43
2021/11/11 05:33:30;;;;;;;12.70;9.80;;;2.20;85.40;;;;;;4898399;29;20565;-44
2021/11/11 05:35:57;;;;;;;13.97;9.30;;;2.20;85.40;;;;;;4893157;29;21091;-44
2021/11/11 05:38:24;;;;;;;10.63;8.80;;;2.20;85.30;;;;;;4878525;29;20476;-44
2021/11/11 05:40:51;;;;;;;11.53;8.33;;;2.20;85.30;;;;;;4895311;29;20481;-44
2021/11/11 05:43:21;;;;;;;14.30;9.87;;;2.20;85.40;;;;;;4897349;29;20497;-45
2021/11/11 05:45:47;;;;;;;18.00;10.30;;;2.20;85.20;;;;;;4893883;29;20462;-44
2021/11/11 05:48:14;;;;;;;10.40;8.77;;;2.20;85.10;;;;;;4896952;29;20542;-44
2021/11/11 05:50:41;;;;;;;12.20;9.60;;;2.20;85.10;;;;;;4896795;29;20474;-44
2021/11/11 05:53:08;;;;;;;11.70;9.00;;;2.20;85.10;;;;;;4896731;29;20470;-44
2021/11/11 05:55:35;;;;;;;14.10;9.87;;;2.20;85.10;;;;;;4893514;29;20504;-44
2021/11/11 05:58:02;;;;;;;12.17;9.97;;;2.20;85.10;;;;;;4879933;29;20462;-44
2021/11/11 06:00:29;;;;;;;13.47;9.83;;;2.20;85.10;;;;;;4898560;29;20461;-44
2021/11/11 06:02:56;;;;;;;12.40;10.50;;;2.20;85.10;;;;;;4879877;29;20466;-44
2021/11/11 06:05:26;;;;;;;12.07;10.30;;;2.20;85.00;;;;;;4899165;29;20463;-44
2021/11/11 06:07:53;;;;;;;12.77;10.83;;;2.20;84.80;;;;;;4900990;29;20480;-44
2021/11/11 06:10:20;;;;;;;15.50;10.67;;;2.20;84.70;;;;;;4897638;29;20475;-44
2021/11/11 06:12:46;;;;;;;10.57;9.47;;;2.20;84.60;;;;;;4901073;29;20473;-44
2021/11/11 06:15:13;;;;;;;10.67;9.57;;;2.20;84.60;;;;;;4901397;29;20470;-44
2021/11/11 06:17:41;;;;;;;17.17;9.87;;;2.20;84.50;;;;;;4898568;29;20466;-44
2021/11/11 06:20:16;;;;;;;16.10;10.90;;;2.20;84.50;;;;;;4896293;29;20470;-43
2021/11/11 06:22:45;;;;;;;13.67;10.17;;;2.20;84.50;;;;;;4898180;29;20928;-44
2021/11/11 06:25:12;;;;;;;14.60;11.57;;;2.10;84.60;;;;;;4895156;29;20860;-43
2021/11/11 06:27:39;;;;;;;11.70;9.57;;;2.10;84.30;;;;;;4879883;29;20455;-44
2021/11/11 06:30:07;;;;;;;11.23;10.13;;;2.10;84.40;;;;;;4886397;29;20852;-44
2021/11/11 06:32:35;;;;;;;12.53;10.10;;;2.10;84.30;;;;;;4899864;29;20573;-44
2021/11/11 06:35:22;;;;;;;13.60;9.93;;;2.10;84.20;;;;;;4899778;29;20857;-44
2021/11/11 06:37:49;;;;;;;13.20;8.50;;;2.10;84.20;;;;;;4899279;29;20466;-44
2021/11/11 06:40:15;;;;;;;12.40;9.30;;;2.10;84.30;;;;;;4899120;29;20533;-44
2021/11/11 06:42:42;;;;;;;11.80;9.00;;;2.10;84.30;;;;;;4884155;29;20848;-44
2021/11/11 06:45:14;;;;;;;11.13;10.00;;;2.10;84.20;;;;;;4896194;29;20485;-44
2021/11/11 06:47:41;;;;;;;11.27;10.07;;;2.10;84.10;;;;;;4897138;29;20466;-44
2021/11/11 06:50:09;;;;;;;10.30;9.20;;;2.10;83.90;;;;;;4898919;29;20470;-44
2021/11/11 06:52:38;;;;;;;12.40;9.60;;;2.10;84.00;;;;;;4891242;29;20470;-44
2021/11/11 06:55:06;;;;;;;10.10;8.77;;;2.10;84.00;;;;;;4894525;29;20473;-43
2021/11/11 06:57:33;;;;;;;11.60;9.00;;;2.10;84.10;;;;;;4898856;29;20528;-43
2021/11/11 07:00:01;;;;;;;10.73;9.27;;;2.00;84.10;;;;;;4882800;29;20476;-44
2021/11/11 07:02:28;;;;;;;12.63;9.93;;;2.00;84.20;;;;;;4899096;29;20473;-44
2021/11/11 07:04:55;;;;;;;13.20;9.40;;;2.00;84.30;;;;;;4885989;29;20493;-44
2021/11/11 07:07:22;;;;;;;14.20;10.43;;;2.00;84.30;;;;;;4897779;29;20473;-44
2021/11/11 07:09:50;;;;;;;10.47;9.37;;;2.10;84.50;;;;;;4880469;29;20472;-43
2021/11/11 07:12:17;;;;;;;12.70;9.93;;;2.10;84.70;;;;;;4899906;29;20476;-44
2021/11/11 07:14:44;;;;;;;11.30;9.10;;;2.20;84.70;;;;;;4898546;29;20463;-44
2021/11/11 07:17:11;;;;;;;12.53;11.17;;;2.20;84.80;;;;;;4896632;29;20469;-43
2021/11/11 07:19:38;;;;;;;12.13;10.80;;;2.20;85.00;;;;;;4901027;29;20484;-44
2021/11/11 07:22:06;;;;;;;13.73;11.33;;;2.20;85.00;;;;;;4900328;29;20473;-44
2021/11/11 07:24:33;;;;;;;14.00;10.83;;;2.30;84.90;;;;;;4898685;29;20782;-44
2021/11/11 07:27:00;;;;;;;15.87;11.43;;;2.40;84.90;;;;;;4883737;29;20462;-44
2021/11/11 07:29:27;;;;;;;14.87;10.20;;;2.50;84.80;;;;;;4886751;29;20458;-44
2021/11/11 07:31:54;;;;;;;16.00;11.50;;;2.50;84.80;;;;;;4900925;29;20487;-44
2021/11/11 07:34:23;;;;;;;14.53;10.63;;;2.40;85.00;;;;;;4898417;29;20977;-44
2021/11/11 07:36:52;;;;;;;12.90;9.60;;;2.50;85.40;;;;;;4883612;29;21163;-43
2021/11/11 07:39:19;;;;;;;14.37;10.37;;;2.50;85.30;;;;;;4882759;29;20520;-44
2021/11/11 07:41:46;;;;;;;16.47;10.07;;;2.50;85.30;;;;;;4899109;29;20525;-45
2021/11/11 07:44:13;;;;;;;17.03;10.97;;;2.60;85.00;;;;;;4880004;29;20489;-44
2021/11/11 07:46:42;;;;;;;16.70;10.20;;;2.50;85.00;;;;;;4882468;29;20473;-45
2021/11/11 07:49:10;;;;;;;11.63;9.10;;;2.50;85.40;;;;;;4894142;29;20481;-44
2021/11/11 07:51:37;;;;;;;14.97;9.93;;;2.50;85.70;;;;;;4890640;29;20473;-44
2021/11/11 07:54:05;;;;;;;17.93;11.07;;;2.60;85.50;;;;;;4918611;29;20480;-44
2021/11/11 07:56:35;;;;;;;17.03;10.33;;;2.60;85.40;;;;;;4888964;29;20990;-44
2021/11/11 07:59:03;;;;;;;14.90;11.57;;;2.60;85.70;;;;;;4905196;29;20977;-44
2021/11/11 08:01:31;;;;;;;14.37;10.43;;;2.60;86.00;;;;;;4906320;29;20822;-44
2021/11/11 08:03:58;;;;;;;16.20;11.00;;;2.70;85.80;;;;;;4901671;29;20540;-44
2021/11/11 08:06:25;;;;;;;16.10;10.47;;;2.70;85.70;;;;;;4888799;29;20461;-44
2021/11/11 08:08:52;;;;;;;15.80;10.53;;;2.80;85.60;;;;;;4883031;29;21015;-44
2021/11/11 08:11:19;;;;;;;19.03;11.00;;;2.80;85.40;;;;;;4896642;29;20469;-44
2021/11/11 08:13:45;;;;;;;15.27;10.90;;;2.80;85.30;;;;;;4897135;29;20468;-44
2021/11/11 08:16:12;;;;;;;18.53;11.53;;;2.80;85.50;;;;;;4898802;29;20484;-44
2021/11/11 08:18:39;;;;;;;14.00;9.73;;;2.80;85.70;;;;;;4901360;29;20931;-44
2021/11/11 08:21:06;;;;;;;14.77;10.07;;;2.80;85.90;;;;;;4899576;29;20476;-44
2021/11/11 08:23:34;;;;;;;16.87;10.13;;;2.80;86.00;;;;;;4903690;29;20988;-44
2021/11/11 08:26:06;;;;;;;18.40;10.67;;;2.90;85.90;;;;;;4917451;29;20903;-44
2021/11/11 08:28:36;;;;;;;16.13;11.07;;;2.90;85.90;;;;;;4899166;29;20469;-44
2021/11/11 08:31:03;;;;;;;19.30;11.03;;;2.90;86.20;;;;;;4900376;29;20472;-44
2021/11/11 08:33:30;;;;;;;15.07;11.53;;;2.90;86.40;;;;;;4900238;29;20497;-44
2021/11/11 08:35:57;;;;;;;15.77;11.07;;;3.00;86.40;;;;;;4903950;29;20472;-44
2021/11/11 08:38:27;;;;;;;24.20;10.60;;;3.00;86.40;;;;;;4883786;29;20981;-45
2021/11/11 08:40:55;;;;;;;25.00;12.00;;;3.00;86.50;;;;;;4902221;29;20466;-45
2021/11/11 08:43:22;;;;;;;18.40;10.87;;;3.00;86.70;;;;;;4901118;29;20457;-45
2021/11/11 08:45:50;;;;;;;25.43;12.30;;;3.10;87.00;;;;;;4883388;29;20504;-44
2021/11/11 08:48:17;;;;;;;17.60;10.93;;;3.10;87.10;;;;;;4902592;29;20465;-44
2021/11/11 08:50:44;;;;;;;19.77;11.37;;;3.10;87.30;;;;;;4902359;29;20475;-43
2021/11/11 08:53:12;;;;;;;22.30;12.23;;;3.20;87.20;;;;;;4904598;29;20465;-44
2021/11/11 08:55:41;;;;;;;18.03;12.57;;;3.20;87.20;;;;;;4903566;29;20516;-44
2021/11/11 08:58:09;;;;;;;20.80;12.77;;;3.30;87.20;;;;;;4885028;29;20477;-44
2021/11/11 09:00:40;;;;;;;24.00;13.03;;;3.30;87.70;;;;;;4889932;29;20505;-44
2021/11/11 09:03:07;;;;;;;25.10;13.70;;;3.40;87.60;;;;;;4885539;29;20489;-44
2021/11/11 09:05:36;;;;;;;31.80;14.27;;;3.40;87.30;;;;;;4902503;29;20497;-44
2021/11/11 09:08:04;;;;;;;22.77;11.80;;;3.40;87.70;;;;;;4901876;29;20478;-44
2021/11/11 09:10:35;;;;;;;27.13;13.53;;;3.40;87.80;;;;;;4883829;29;20969;-45
2021/11/11 09:13:22;;;;;;;23.40;12.73;;;3.40;88.20;;;;;;4901331;29;20458;-44
2021/11/11 09:15:49;;;;;;;19.20;11.80;;;3.40;88.20;;;;;;4889049;29;20560;-44
2021/11/11 09:18:16;;;;;;;22.57;12.20;;;3.40;88.50;;;;;;4899105;29;20465;-44
2021/11/11 09:20:59;;;;;;;27.00;12.90;;;3.50;88.70;;;;;;4903150;29;20878;-44
2021/11/11 09:23:25;;;;;;;30.30;15.50;;;3.60;88.60;;;;;;4902486;29;20470;-44
2021/11/11 09:25:52;;;;;;;28.47;13.20;;;3.60;88.20;;;;;;4896804;29;20941;-44
2021/11/11 09:28:19;;;;;;;28.20;13.50;;;3.60;88.30;;;;;;4900368;29;20465;-44
2021/11/11 09:30:46;;;;;;;18.53;11.70;;;3.60;88.80;;;;;;4903783;29;20495;-44
2021/11/11 09:33:12;;;;;;;25.23;13.57;;;3.70;88.60;;;;;;4901763;29;20468;-44
2021/11/11 09:35:39;;;;;;;23.90;13.10;;;3.70;88.50;;;;;;4888270;29;20501;-44
2021/11/11 09:38:06;;;;;;;19.33;12.83;;;3.70;88.80;;;;;;4903088;29;20480;-45
2021/11/11 09:40:33;;;;;;;22.60;13.67;;;3.70;88.70;;;;;;4883499;29;20470;-45
2021/11/11 09:43:01;;;;;;;17.10;11.27;;;3.70;88.80;;;;;;4883769;29;20467;-45
2021/11/11 09:45:33;;;;;;;21.73;12.23;;;3.70;88.70;;;;;;4900939;29;20504;-45
2021/11/11 09:48:00;;;;;;;24.60;13.63;;;3.70;88.80;;;;;;4900248;29;20489;-45
2021/11/11 09:50:29;;;;;;;31.50;15.43;;;3.80;88.90;;;;;;4900365;29;20490;-45
2021/11/11 09:52:59;;;;;;;22.40;15.80;;;3.80;89.00;;;;;;4899314;29;20470;-45
2021/11/11 10:00:59;;;;;;;28.87;14.93;;;3.90;89.30;;;;;;4901145;29;20988;-45
2021/11/11 10:03:27;;;;;;;23.73;14.70;;;4.00;88.90;;;;;;4901643;29;20473;-45
2021/11/11 10:05:54;;;;;;;24.07;15.23;;;4.00;88.90;;;;;;4899415;29;20499;-45
2021/11/11 10:08:40;;;;;;;23.00;14.73;;;4.00;89.00;;;;;;4883448;29;20462;-45
2021/11/11 10:11:26;;;;;;;25.10;15.10;;;4.10;89.20;;;;;;4900468;29;20457;-45
2021/11/11 10:13:55;;;;;;;27.10;16.47;;;4.10;89.10;;;;;;4899949;29;20485;-45
2021/11/11 10:16:21;;;;;;;31.30;16.20;;;4.10;89.00;;;;;;4901045;29;20470;-45
2021/11/11 10:18:54;;;;;;;27.33;15.50;;;4.20;88.80;;;;;;4898737;29;20466;-45
2021/11/11 10:21:37;;;;;;;27.10;16.00;;;4.20;88.80;;;;;;4879391;29;20468;-45
2021/11/11 10:24:15;;;;;;;28.90;16.37;;;4.10;89.30;;;;;;4882959;29;20470;-44
2021/11/11 10:26:53;;;;;;;28.00;16.50;;;4.20;89.30;;;;;;4899566;29;20826;-44
2021/11/11 10:29:31;;;;;;;24.30;16.50;;;4.20;89.20;;;;;;4898109;29;20500;-44
2021/11/11 10:32:09;;;;;;;19.03;15.30;;;4.30;89.00;;;;;;4899150;29;20468;-45
2021/11/11 10:34:51;;;;;;;19.97;14.07;;;4.30;88.50;;;;;;4878382;29;20970;-45
2021/11/11 10:37:19;;;;;;;23.13;15.03;;;4.30;88.30;;;;;;4899568;29;20454;-44
2021/11/11 10:40:00;;;;;;;20.27;14.27;;;4.40;87.90;;;;;;4884216;29;20473;-45
2021/11/11 10:42:29;;;;;;;24.27;14.83;;;4.40;87.80;;;;;;4896185;29;20462;-45
2021/11/11 10:44:57;;;;;;;21.80;14.07;;;4.40;87.70;;;;;;4895348;29;20497;-44
2021/11/11 10:47:32;;;;;;;21.43;13.47;;;4.40;87.80;;;;;;4893718;29;20458;-45
2021/11/11 10:50:08;;;;;;;21.47;13.67;;;4.50;87.60;;;;;;4898718;29;20468;-44
2021/11/11 10:52:41;;;;;;;23.57;14.93;;;4.50;87.50;;;;;;4896225;29;20464;-43
2021/11/11 10:55:11;;;;;;;25.00;14.70;;;4.60;87.50;;;;;;4894822;29;20489;-44
2021/11/11 10:57:37;;;;;;;25.57;15.30;;;4.60;87.60;;;;;;4899043;29;20465;-44
2021/11/11 11:00:10;;;;;;;24.40;15.20;;;4.70;87.40;;;;;;4899495;29;20454;-44
2021/11/11 11:02:58;;;;;;;23.33;16.13;;;4.70;87.40;;;;;;4893324;29;20481;-45
2021/11/11 11:05:51;;;;;;;23.63;14.43;;;4.70;87.60;;;;;;4900987;29;20620;-46
2021/11/11 11:08:25;;;;;;;27.90;15.60;;;4.70;87.70;;;;;;4894867;29;20477;-44
2021/11/11 11:10:57;;;;;;;25.53;15.20;;;4.70;87.80;;;;;;4899272;29;20450;-45
2021/11/11 11:13:29;;;;;;;25.17;16.03;;;4.80;87.80;;;;;;4899797;29;20509;-45
2021/11/11 11:15:58;;;;;;;23.97;16.10;;;4.80;87.70;;;;;;4882325;29;20520;-45
2021/11/11 11:18:32;;;;;;;25.80;14.50;;;4.90;87.60;;;;;;4898564;29;20477;-45
2021/11/11 11:21:05;;;;;;;28.33;16.40;;;4.90;87.40;;;;;;4900944;29;20469;-45
2021/11/11 11:23:45;;;;;;;26.57;16.87;;;4.90;87.40;;;;;;4897823;29;20545;-45
2021/11/11 11:26:32;;;;;;;28.30;17.77;;;5.00;87.40;;;;;;4899223;29;20820;-44
2021/11/11 11:29:09;;;;;;;26.60;15.13;;;5.00;87.50;;;;;;4895873;29;20485;-45
2021/11/11 11:32:04;;;;;;;28.30;16.83;;;5.10;87.30;;;;;;4898797;29;20496;-45
2021/11/11 11:34:41;;;;;;;34.63;17.13;;;5.10;87.40;;;;;;4896849;29;20782;-44
2021/11/11 11:37:10;;;;;;;27.80;16.50;;;5.10;87.40;;;;;;4896195;29;20836;-45
2021/11/11 11:39:45;;;;;;;31.57;17.83;;;5.20;87.20;;;;;;4900635;29;20469;-45
2021/11/11 11:42:22;;;;;;;25.73;16.80;;;5.20;87.40;;;;;;4900997;29;20461;-45
2021/11/11 11:45:07;;;;;;;25.60;16.43;;;5.20;87.50;;;;;;4899347;29;20497;-45
2021/11/11 11:47:42;;;;;;;27.47;18.10;;;5.20;87.50;;;;;;4898857;29;20560;-45
2021/11/11 11:50:16;;;;;;;27.80;18.10;;;5.20;87.80;;;;;;4901607;29;20493;-44
2021/11/11 11:52:54;;;;;;;30.07;18.77;;;5.30;87.80;;;;;;4884111;29;20494;-44
2021/11/11 11:55:28;;;;;;;28.57;18.20;;;5.30;87.90;;;;;;4886186;29;20561;-45
2021/11/11 12:06:08;;;;;;;30.67;18.80;;;5.40;87.70;;;;;;4897481;29;20485;-44
2021/11/11 12:40:00;;;;;;;38.77;20.00;;;5.60;86.70;;;;;;4902377;29;20544;-44
2021/11/11 12:42:32;;;;;;;32.00;19.13;;;5.60;87.00;;;;;;4888546;29;20489;-44
2021/11/11 12:45:01;;;;;;;30.30;19.77;;;5.60;86.70;;;;;;4904545;29;21003;-45
2021/11/11 12:47:33;;;;;;;31.37;20.43;;;5.70;86.80;;;;;;4896645;29;21055;-45
2021/11/11 12:50:31;;;;;;;37.00;20.87;;;5.60;86.80;;;;;;4888552;29;20466;-44
2021/11/11 12:53:13;;;;;;;30.17;20.50;;;5.60;87.10;;;;;;4892923;29;20467;-45
2021/11/11 12:56:05;;;;;;;35.83;21.20;;;5.70;87.00;;;;;;4899729;29;20493;-44
2021/11/11 12:58:57;;;;;;;36.47;21.07;;;5.70;86.80;;;;;;4900311;29;20526;-45
2021/11/11 13:01:30;;;;;;;37.87;20.43;;;5.70;86.90;;;;;;4898393;29;20545;-45
2021/11/11 13:03:58;;;;;;;34.00;20.70;;;5.80;86.90;;;;;;4902353;29;20987;-45
2021/11/11 13:06:55;;;;;;;34.80;20.60;;;5.70;86.70;;;;;;4903305;29;20642;-45
2021/11/11 13:09:32;;;;;;;38.73;21.77;;;5.70;86.90;;;;;;4886741;29;20553;-44
2021/11/11 13:12:05;;;;;;;36.03;20.70;;;5.70;87.10;;;;;;4886558;29;20900;-45
2021/11/11 13:14:50;;;;;;;35.73;20.80;;;5.60;87.40;;;;;;4888340;29;20458;-44
2021/11/11 13:17:19;;;;;;;39.10;18.80;;;5.60;87.70;;;;;;4902821;29;20470;-45
2021/11/11 13:20:04;;;;;;;34.37;21.07;;;5.60;87.60;;;;;;4902974;29;20490;-44
2021/11/11 13:22:46;;;;;;;34.17;20.03;;;5.60;87.90;;;;;;4900507;29;20476;-45
2021/11/11 13:59:25;;;;;;;35.20;17.50;;;5.80;87.60;;;;;;4903721;29;20977;-45
2021/11/11 15:44:55;;;;;;;45.60;23.83;;;5.60;87.90;;;;;;4900099;29;20888;-44
2021/11/11 15:47:47;;;;;;;48.63;26.53;;;5.50;88.20;;;;;;4901285;29;20496;-45
2021/11/11 16:25:35;;;;;;;43.57;23.23;;;5.50;88.50;;;;;;4904811;29;20500;-44
2021/11/11 16:27:57;;;;;;;45.23;22.47;;;5.50;88.50;;;;;;4904578;29;20488;-44
2021/11/11 16:30:24;;;;;;;36.80;21.77;;;5.40;88.60;;;;;;4906002;29;20445;-44
2021/11/11 16:32:51;;;;;;;49.90;22.17;;;5.50;88.60;;;;;;4891962;29;20458;-45
2021/11/11 16:35:22;;;;;;;37.77;22.10;;;5.50;88.30;;;;;;4905290;29;20501;-44
2021/11/11 16:37:50;;;;;;;36.17;21.93;;;5.50;88.00;;;;;;4902862;29;20458;-45
2021/11/11 16:40:27;;;;;;;39.70;21.50;;;5.40;88.00;;;;;;4905723;29;20472;-44
2021/11/11 16:42:54;;;;;;;47.67;24.57;;;5.40;88.30;;;;;;4877865;29;20550;-44
2021/11/11 16:45:24;;;;;;;45.07;21.67;;;5.40;88.60;;;;;;4904992;29;20469;-43
2021/11/11 16:47:51;;;;;;;40.90;21.60;;;5.40;88.60;;;;;;4900732;29;20586;-45
2021/11/11 16:50:21;;;;;;;34.97;20.97;;;5.40;88.80;;;;;;4902933;29;20996;-44